createdAt,value
2017-04-07T00:00:12.254Z,0
2017-04-07T00:01:12.425Z,0
2017-04-07T00:02:12.704Z,0
2017-04-07T00:03:12.086Z,0
2017-04-07T00:04:12.396Z,0
2017-04-07T00:05:12.772Z,0
2017-04-07T00:06:12.633Z,0
2017-04-07T00:07:12.404Z,0
2017-04-07T00:08:12.363Z,0
2017-04-07T00:09:11.934Z,0
2017-04-07T00:10:12.243Z,0
2017-04-07T00:11:12.338Z,0
2017-04-07T00:12:12.562Z,0
2017-04-07T00:13:12.189Z,0
2017-04-07T00:14:12.253Z,0
2017-04-07T00:15:12.211Z,0
2017-04-07T00:16:12.118Z,0
2017-04-07T00:17:12.112Z,0
2017-04-07T00:18:12.353Z,0
2017-04-07T00:19:11.736Z,0
2017-04-07T00:20:11.774Z,0
2017-04-07T00:21:12.313Z,0
2017-04-07T00:22:12.305Z,0
2017-04-07T00:23:12.274Z,0
2017-04-07T00:24:12.373Z,0
2017-04-07T00:25:12.303Z,0
2017-04-07T00:26:12.213Z,0
2017-04-07T00:27:12.274Z,0
2017-04-07T00:28:11.238Z,0
2017-04-07T00:29:11.822Z,0
2017-04-07T00:30:11.852Z,0
2017-04-07T00:31:11.793Z,0
2017-04-07T00:32:12.074Z,0
2017-04-07T00:33:11.763Z,0
2017-04-07T00:34:11.831Z,0
2017-04-07T00:35:11.395Z,0
2017-04-07T00:36:11.693Z,0
2017-04-07T00:37:11.962Z,0
2017-04-07T00:38:11.335Z,0
2017-04-07T00:39:11.363Z,0
2017-04-07T00:40:11.924Z,0
2017-04-07T00:41:11.881Z,0
2017-04-07T00:42:11.872Z,0
2017-04-07T00:43:11.839Z,0
2017-04-07T00:44:11.813Z,0
2017-04-07T00:45:11.486Z,0
2017-04-07T00:46:11.163Z,0
2017-04-07T00:47:11.763Z,0
2017-04-07T00:48:11.432Z,0
2017-04-07T00:49:11.712Z,0
2017-04-07T00:50:11.447Z,0
2017-04-07T00:51:11.063Z,0
2017-04-07T00:52:11.433Z,0
2017-04-07T00:53:11.002Z,0
2017-04-07T00:54:10.983Z,0
2017-04-07T00:55:11.583Z,0
2017-04-07T00:56:11.249Z,0
2017-04-07T00:57:11.235Z,0
2017-04-07T00:58:10.908Z,0
2017-04-07T00:59:11.193Z,0
2017-04-07T01:00:10.863Z,0
2017-04-07T01:01:11.460Z,0
2017-04-07T01:02:11.153Z,0
2017-04-07T01:03:10.471Z,0
2017-04-07T01:04:11.382Z,0
2017-04-07T01:05:11.075Z,0
2017-04-07T01:06:11.043Z,0
2017-04-07T01:07:11.334Z,0
2017-04-07T01:08:11.345Z,0
2017-04-07T01:09:10.974Z,0
2017-04-07T01:10:11.264Z,0
2017-04-07T01:11:10.924Z,0
2017-04-07T01:12:11.223Z,0
2017-04-07T01:13:11.202Z,0
2017-04-07T01:14:10.549Z,0
2017-04-07T01:15:10.843Z,0
2017-04-07T01:16:10.212Z,0
2017-04-07T01:17:11.113Z,0
2017-04-07T01:18:10.482Z,0
2017-04-07T01:19:11.068Z,0
2017-04-07T01:20:10.733Z,0
2017-04-07T01:21:10.409Z,0
2017-04-07T01:22:10.993Z,0
2017-04-07T01:23:10.983Z,0
2017-04-07T01:24:10.052Z,0
2017-04-07T01:25:10.944Z,0
2017-04-07T01:26:10.912Z,0
2017-04-07T01:27:10.905Z,0
2017-04-07T01:28:10.081Z,0
2017-04-07T01:29:10.562Z,0
2017-04-07T01:30:10.637Z,0
2017-04-07T01:31:10.520Z,0
2017-04-07T01:32:09.866Z,0
2017-04-07T01:33:10.772Z,0
2017-04-07T01:34:10.743Z,0
2017-04-07T01:35:10.422Z,0
2017-04-07T01:36:10.143Z,0
2017-04-07T01:37:10.073Z,0
2017-04-07T01:38:10.063Z,0
2017-04-07T01:39:10.634Z,0
2017-04-07T01:40:10.602Z,0
2017-04-07T01:41:09.993Z,0
2017-04-07T01:42:09.945Z,0
2017-04-07T01:43:09.963Z,0
2017-04-07T01:44:10.215Z,0
2017-04-07T01:45:10.225Z,0
2017-04-07T01:46:10.177Z,0
2017-04-07T01:47:10.482Z,0
2017-04-07T01:48:09.833Z,0
2017-04-07T01:49:10.148Z,0
2017-04-07T01:50:10.404Z,0
2017-04-07T01:51:10.095Z,0
2017-04-07T01:52:09.895Z,0
2017-04-07T01:53:10.352Z,0
2017-04-07T01:54:10.012Z,0
2017-04-07T01:55:09.993Z,0
2017-04-07T01:56:10.258Z,0
2017-04-07T01:57:09.939Z,0
2017-04-07T01:58:10.240Z,0
2017-04-07T01:59:10.259Z,0
2017-04-07T02:00:09.873Z,0
2017-04-07T02:01:09.862Z,0
2017-04-07T02:02:09.834Z,0
2017-04-07T02:03:10.152Z,0
2017-04-07T02:04:09.802Z,0
2017-04-07T02:05:10.072Z,0
2017-04-07T02:06:10.063Z,0
2017-04-07T02:07:09.744Z,0
2017-04-07T02:08:09.402Z,0
2017-04-07T02:09:09.413Z,0
2017-04-07T02:10:09.673Z,0
2017-04-07T02:11:09.963Z,0
2017-04-07T02:12:10.008Z,0
2017-04-07T02:13:09.952Z,0
2017-04-07T02:14:10.091Z,0
2017-04-07T02:15:09.547Z,0
2017-04-07T02:16:09.528Z,0
2017-04-07T02:17:09.521Z,0
2017-04-07T02:18:09.494Z,0
2017-04-07T02:19:09.783Z,0
2017-04-07T02:20:09.758Z,0
2017-04-07T02:21:09.429Z,0
2017-04-07T02:22:09.712Z,0
2017-04-07T02:23:09.699Z,0
2017-04-07T02:24:09.377Z,0
2017-04-07T02:25:09.341Z,0
2017-04-07T02:26:08.712Z,0
2017-04-07T02:27:09.294Z,0
2017-04-07T02:28:09.282Z,0
2017-04-07T02:29:09.252Z,0
2017-04-07T02:30:09.602Z,0
2017-04-07T02:31:09.531Z,0
2017-04-07T02:32:09.555Z,0
2017-04-07T02:33:09.167Z,0
2017-04-07T02:34:08.850Z,0
2017-04-07T02:35:08.833Z,0
2017-04-07T02:36:09.464Z,0
2017-04-07T02:37:09.085Z,0
2017-04-07T02:38:09.372Z,0
2017-04-07T02:39:09.051Z,0
2017-04-07T02:40:08.417Z,0
2017-04-07T02:41:09.021Z,0
2017-04-07T02:42:08.983Z,0
2017-04-07T02:43:08.972Z,0
2017-04-07T02:44:09.253Z,0
2017-04-07T02:45:08.962Z,0
2017-04-07T02:46:08.591Z,0
2017-04-07T02:47:08.572Z,0
2017-04-07T02:48:09.195Z,0
2017-04-07T02:49:08.861Z,0
2017-04-07T02:50:08.512Z,0
2017-04-07T02:51:08.841Z,0
2017-04-07T02:52:08.762Z,0
2017-04-07T02:53:09.071Z,0
2017-04-07T02:54:08.414Z,0
2017-04-07T02:55:08.819Z,0
2017-04-07T02:56:08.981Z,0
2017-04-07T02:57:08.996Z,0
2017-04-07T02:58:08.642Z,0
2017-04-07T02:59:09.020Z,0
2017-04-07T03:00:08.591Z,0
2017-04-07T03:01:08.991Z,0
2017-04-07T03:02:08.551Z,0
2017-04-07T03:03:08.941Z,0
2017-04-07T03:04:08.541Z,0
2017-04-07T03:05:08.851Z,0
2017-04-07T03:06:08.532Z,0
2017-04-07T03:07:08.882Z,0
2017-04-07T03:08:08.482Z,0
2017-04-07T03:09:08.114Z,0
2017-04-07T03:10:08.789Z,0
2017-04-07T03:11:08.471Z,0
2017-04-07T03:12:08.680Z,0
2017-04-07T03:13:08.687Z,0
2017-04-07T03:14:08.692Z,0
2017-04-07T03:15:08.690Z,0
2017-04-07T03:16:08.292Z,0
2017-04-07T03:17:08.601Z,0
2017-04-07T03:18:08.548Z,0
2017-04-07T03:19:08.251Z,0
2017-04-07T03:20:07.861Z,0
2017-04-07T03:21:07.843Z,0
2017-04-07T03:22:08.455Z,0
2017-04-07T03:23:08.154Z,0
2017-04-07T03:24:08.085Z,0
2017-04-07T03:25:08.063Z,0
2017-04-07T03:26:07.746Z,0
2017-04-07T03:27:08.046Z,0
2017-04-07T03:28:08.374Z,0
2017-04-07T03:29:07.994Z,0
2017-04-07T03:30:08.386Z,0
2017-04-07T03:31:08.237Z,0
2017-04-07T03:32:07.923Z,0
2017-04-07T03:33:08.002Z,0
2017-04-07T03:34:07.941Z,0
2017-04-07T03:35:07.551Z,0
2017-04-07T03:36:08.301Z,0
2017-04-07T03:37:07.922Z,0
2017-04-07T03:38:07.575Z,0
2017-04-07T03:39:07.763Z,0
2017-04-07T03:40:08.051Z,0
2017-04-07T03:41:07.813Z,0
2017-04-07T03:42:07.708Z,0
2017-04-07T03:43:07.382Z,0
2017-04-07T03:44:07.990Z,0
2017-04-07T03:45:07.712Z,0
2017-04-07T03:46:07.622Z,0
2017-04-07T03:47:07.683Z,0
2017-04-07T03:48:07.579Z,0
2017-04-07T03:49:07.961Z,0
2017-04-07T03:50:07.886Z,0
2017-04-07T03:51:07.836Z,0
2017-04-07T03:52:07.800Z,0
2017-04-07T03:53:07.561Z,0
2017-04-07T03:54:07.462Z,0
2017-04-07T03:55:07.732Z,0
2017-04-07T03:56:07.714Z,0
2017-04-07T03:57:07.762Z,0
2017-04-07T03:58:07.360Z,0
2017-04-07T03:59:07.763Z,0
2017-04-07T04:00:07.630Z,0
2017-04-07T04:01:07.708Z,0
2017-04-07T04:02:07.582Z,0
2017-04-07T04:03:06.951Z,0
2017-04-07T04:04:07.566Z,0
2017-04-07T04:05:07.622Z,0
2017-04-07T04:06:07.519Z,0
2017-04-07T04:07:07.504Z,0
2017-04-07T04:08:07.471Z,0
2017-04-07T04:09:06.521Z,0
2017-04-07T04:10:07.422Z,0
2017-04-07T04:11:07.409Z,0
2017-04-07T04:12:07.377Z,0
2017-04-07T04:13:07.045Z,0
2017-04-07T04:14:07.033Z,0
2017-04-07T04:15:07.322Z,0
2017-04-07T04:16:06.990Z,0
2017-04-07T04:17:06.982Z,0
2017-04-07T04:18:06.951Z,0
2017-04-07T04:19:06.981Z,0
2017-04-07T04:20:06.595Z,0
2017-04-07T04:21:06.940Z,0
2017-04-07T04:22:07.178Z,0
2017-04-07T04:23:06.830Z,0
2017-04-07T04:24:07.122Z,0
2017-04-07T04:25:07.101Z,0
2017-04-07T04:26:07.088Z,0
2017-04-07T04:27:06.806Z,0
2017-04-07T04:28:06.432Z,0
2017-04-07T04:29:07.007Z,0
2017-04-07T04:30:07.012Z,0
2017-04-07T04:31:06.971Z,0
2017-04-07T04:32:06.343Z,4
2017-04-07T04:33:06.381Z,4
2017-04-07T04:34:06.322Z,4
2017-04-07T04:35:06.892Z,0
2017-04-07T04:36:06.264Z,4
2017-04-07T04:37:06.540Z,4
2017-04-07T04:38:06.220Z,8
2017-04-07T04:39:06.251Z,4
2017-04-07T04:40:06.472Z,8
2017-04-07T04:41:06.550Z,8
2017-04-07T04:42:06.461Z,8
2017-04-07T04:43:06.411Z,8
2017-04-07T04:44:06.392Z,8
2017-04-07T04:45:06.682Z,12
2017-04-07T04:46:06.369Z,16
2017-04-07T04:47:06.380Z,16
2017-04-07T04:48:06.373Z,16
2017-04-07T04:49:06.076Z,20
2017-04-07T04:50:06.572Z,20
2017-04-07T04:51:06.555Z,24
2017-04-07T04:52:06.230Z,28
2017-04-07T04:53:06.510Z,28
2017-04-07T04:54:06.182Z,32
2017-04-07T04:55:06.159Z,32
2017-04-07T04:56:06.219Z,36
2017-04-07T04:57:06.122Z,44
2017-04-07T04:58:05.881Z,44
2017-04-07T04:59:06.363Z,48
2017-04-07T05:00:06.370Z,52
2017-04-07T05:01:06.353Z,56
2017-04-07T05:02:06.011Z,60
2017-04-07T05:03:06.011Z,68
2017-04-07T05:04:06.281Z,72
2017-04-07T05:05:06.046Z,72
2017-04-07T05:06:06.011Z,80
2017-04-07T05:07:06.242Z,88
2017-04-07T05:08:06.213Z,92
2017-04-07T05:09:05.562Z,100
2017-04-07T05:10:05.547Z,104
2017-04-07T05:11:06.141Z,112
2017-04-07T05:12:05.789Z,120
2017-04-07T05:13:05.803Z,120
2017-04-07T05:14:05.159Z,128
2017-04-07T05:15:05.436Z,136
2017-04-07T05:16:06.021Z,144
2017-04-07T05:17:06.018Z,148
2017-04-07T05:18:05.977Z,152
2017-04-07T05:19:05.647Z,152
2017-04-07T05:20:05.944Z,156
2017-04-07T05:21:05.292Z,156
2017-04-07T05:22:05.280Z,152
2017-04-07T05:23:05.563Z,156
2017-04-07T05:24:05.674Z,156
2017-04-07T05:25:05.547Z,164
2017-04-07T05:26:05.612Z,164
2017-04-07T05:27:05.177Z,168
2017-04-07T05:28:05.794Z,160
2017-04-07T05:29:05.763Z,164
2017-04-07T05:30:05.151Z,176
2017-04-07T05:31:05.401Z,188
2017-04-07T05:32:05.078Z,212
2017-04-07T05:33:05.443Z,232
2017-04-07T05:34:05.333Z,220
2017-04-07T05:35:05.302Z,228
2017-04-07T05:36:04.998Z,232
2017-04-07T05:37:04.974Z,240
2017-04-07T05:38:05.251Z,248
2017-04-07T05:39:04.633Z,260
2017-04-07T05:40:05.203Z,256
2017-04-07T05:41:05.194Z,272
2017-04-07T05:42:04.873Z,288
2017-04-07T05:43:04.851Z,320
2017-04-07T05:44:05.450Z,336
2017-04-07T05:45:05.417Z,336
2017-04-07T05:46:05.100Z,360
2017-04-07T05:47:05.418Z,420
2017-04-07T05:48:05.052Z,468
2017-04-07T05:49:05.333Z,508
2017-04-07T05:50:05.301Z,540
2017-04-07T05:51:04.982Z,584
2017-04-07T05:52:04.954Z,616
2017-04-07T05:53:05.252Z,616
2017-04-07T05:54:04.913Z,572
2017-04-07T05:55:05.191Z,520
2017-04-07T05:56:05.197Z,556
2017-04-07T05:57:05.163Z,612
2017-04-07T05:58:05.143Z,628
2017-04-07T05:59:05.126Z,616
2017-04-07T06:00:04.796Z,628
2017-04-07T06:01:05.092Z,648
2017-04-07T06:02:05.073Z,684
2017-04-07T06:03:04.483Z,760
2017-04-07T06:04:05.041Z,804
2017-04-07T06:05:05.002Z,848
2017-04-07T06:06:05.062Z,872
2017-04-07T06:07:04.653Z,904
2017-04-07T06:08:04.645Z,920
2017-04-07T06:09:04.669Z,940
2017-04-07T06:10:04.282Z,956
2017-04-07T06:11:04.910Z,976
2017-04-07T06:12:04.861Z,956
2017-04-07T06:13:04.851Z,924
2017-04-07T06:14:04.560Z,940
2017-04-07T06:15:04.797Z,1004
2017-04-07T06:16:04.469Z,1012
2017-04-07T06:17:04.755Z,948
2017-04-07T06:18:04.726Z,928
2017-04-07T06:19:04.402Z,916
2017-04-07T06:20:04.703Z,908
2017-04-07T06:21:04.673Z,892
2017-04-07T06:22:04.693Z,976
2017-04-07T06:23:04.022Z,1008
2017-04-07T06:24:04.299Z,852
2017-04-07T06:25:04.602Z,724
2017-04-07T06:26:04.580Z,832
2017-04-07T06:27:04.538Z,1072
2017-04-07T06:28:04.512Z,1236
2017-04-07T06:29:03.911Z,1268
2017-04-07T06:30:04.286Z,1324
2017-04-07T06:31:04.451Z,1380
2017-04-07T06:32:04.506Z,1404
2017-04-07T06:33:03.601Z,1400
2017-04-07T06:34:03.785Z,1496
2017-04-07T06:35:04.374Z,1616
2017-04-07T06:36:04.041Z,1720
2017-04-07T06:37:04.027Z,1716
2017-04-07T06:38:03.737Z,1736
2017-04-07T06:39:03.433Z,1720
2017-04-07T06:40:03.972Z,1848
2017-04-07T06:41:03.651Z,1808
2017-04-07T06:42:03.635Z,1596
2017-04-07T06:43:03.922Z,1540
2017-04-07T06:44:03.893Z,1600
2017-04-07T06:45:03.610Z,1548
2017-04-07T06:46:03.900Z,1636
2017-04-07T06:47:04.132Z,1684
2017-04-07T06:48:03.803Z,1668
2017-04-07T06:49:03.793Z,1700
2017-04-07T06:50:04.073Z,1820
2017-04-07T06:51:03.844Z,1864
2017-04-07T06:52:04.044Z,1968
2017-04-07T06:53:03.391Z,1932
2017-04-07T06:54:03.692Z,1816
2017-04-07T06:55:03.993Z,1836
2017-04-07T06:56:04.062Z,1800
2017-04-07T06:57:04.044Z,1748
2017-04-07T06:58:03.610Z,1764
2017-04-07T06:59:03.611Z,1940
2017-04-07T07:00:03.368Z,1984
2017-04-07T07:01:03.553Z,1768
2017-04-07T07:02:03.532Z,1812
2017-04-07T07:03:03.809Z,1696
2017-04-07T07:04:03.464Z,1632
2017-04-07T07:05:03.853Z,1744
2017-04-07T07:06:03.443Z,1932
2017-04-07T07:07:03.420Z,1840
2017-04-07T07:08:03.108Z,1856
2017-04-07T07:09:03.391Z,2040
2017-04-07T07:10:03.670Z,2028
2017-04-07T07:11:03.343Z,1940
2017-04-07T07:12:03.314Z,1932
2017-04-07T07:13:03.619Z,1820
2017-04-07T07:14:02.962Z,1800
2017-04-07T07:15:03.251Z,1860
2017-04-07T07:16:03.556Z,1820
2017-04-07T07:17:03.546Z,1764
2017-04-07T07:18:02.584Z,1688
2017-04-07T07:19:03.188Z,1692
2017-04-07T07:20:03.470Z,1776
2017-04-07T07:21:02.823Z,1856
2017-04-07T07:22:03.475Z,1884
2017-04-07T07:23:03.448Z,1748
2017-04-07T07:24:03.151Z,1716
2017-04-07T07:25:03.103Z,1668
2017-04-07T07:26:02.579Z,1560
2017-04-07T07:27:02.720Z,1528
2017-04-07T07:28:03.058Z,1536
2017-04-07T07:29:02.673Z,1420
2017-04-07T07:30:02.402Z,1384
2017-04-07T07:31:03.242Z,1356
2017-04-07T07:32:02.675Z,1412
2017-04-07T07:33:03.339Z,1436
2017-04-07T07:34:02.908Z,1404
2017-04-07T07:35:02.860Z,1308
2017-04-07T07:36:02.635Z,1136
2017-04-07T07:37:03.141Z,984
2017-04-07T07:38:02.902Z,852
2017-04-07T07:39:03.089Z,840
2017-04-07T07:40:02.780Z,924
2017-04-07T07:41:03.062Z,1056
2017-04-07T07:42:02.719Z,1200
2017-04-07T07:43:02.763Z,1308
2017-04-07T07:44:02.678Z,1516
2017-04-07T07:45:03.047Z,1964
2017-04-07T07:46:02.432Z,2292
2017-04-07T07:47:02.707Z,2344
2017-04-07T07:48:03.042Z,2468
2017-04-07T07:49:02.904Z,2744
2017-04-07T07:50:02.612Z,2828
2017-04-07T07:51:02.650Z,2628
2017-04-07T07:52:02.887Z,2704
2017-04-07T07:53:02.857Z,3104
2017-04-07T07:54:02.857Z,3840
2017-04-07T07:55:02.802Z,3964
2017-04-07T07:56:02.582Z,4328
2017-04-07T07:57:02.786Z,4064
2017-04-07T07:58:02.734Z,4692
2017-04-07T07:59:02.730Z,4648
2017-04-07T08:00:02.691Z,4988
2017-04-07T08:01:02.657Z,4840
2017-04-07T08:02:02.061Z,4872
2017-04-07T08:03:02.774Z,4432
2017-04-07T08:04:02.659Z,4204
2017-04-07T08:05:02.664Z,4588
2017-04-07T08:06:02.608Z,5472
2017-04-07T08:07:02.615Z,4880
2017-04-07T08:08:01.883Z,4632
2017-04-07T08:09:02.623Z,4328
2017-04-07T08:10:02.154Z,3912
2017-04-07T08:11:02.446Z,3660
2017-04-07T08:12:01.811Z,3680
2017-04-07T08:13:02.196Z,3820
2017-04-07T08:14:02.093Z,4080
2017-04-07T08:15:02.093Z,3624
2017-04-07T08:16:02.053Z,3384
2017-04-07T08:17:02.372Z,3408
2017-04-07T08:18:02.361Z,3420
2017-04-07T08:19:02.103Z,3388
2017-04-07T08:20:01.993Z,3364
2017-04-07T08:21:02.266Z,3344
2017-04-07T08:22:01.944Z,3220
2017-04-07T08:23:02.255Z,3264
2017-04-07T08:24:01.896Z,3368
2017-04-07T08:25:02.252Z,3440
2017-04-07T08:26:01.882Z,3400
2017-04-07T08:27:02.211Z,3348
2017-04-07T08:28:01.811Z,3532
2017-04-07T08:29:02.228Z,3752
2017-04-07T08:30:01.773Z,3688
2017-04-07T08:31:01.744Z,3876
2017-04-07T08:32:02.104Z,3844
2017-04-07T08:33:01.712Z,3680
2017-04-07T08:34:01.402Z,3580
2017-04-07T08:35:01.663Z,3544
2017-04-07T08:36:02.033Z,3520
2017-04-07T08:37:01.354Z,3544
2017-04-07T08:38:01.612Z,3800
2017-04-07T08:39:01.602Z,3928
2017-04-07T08:40:01.584Z,4296
2017-04-07T08:41:00.944Z,4380
2017-04-07T08:42:01.862Z,4488
2017-04-07T08:43:01.922Z,4592
2017-04-07T08:44:01.521Z,4568
2017-04-07T08:45:01.183Z,4736
2017-04-07T08:46:01.794Z,5332
2017-04-07T08:47:01.143Z,5368
2017-04-07T08:48:01.784Z,5168
2017-04-07T08:49:01.097Z,5172
2017-04-07T08:50:01.489Z,4888
2017-04-07T08:51:01.402Z,4756
2017-04-07T08:52:01.053Z,4684
2017-04-07T08:53:01.743Z,4476
2017-04-07T08:54:01.323Z,4356
2017-04-07T08:55:01.291Z,4264
2017-04-07T08:56:01.310Z,4460
2017-04-07T08:57:01.595Z,4572
2017-04-07T08:58:01.552Z,4556
2017-04-07T08:59:01.531Z,4588
2017-04-07T09:00:01.210Z,4464
2017-04-07T09:01:00.882Z,4380
2017-04-07T09:02:00.881Z,4340
2017-04-07T09:03:01.567Z,4572
2017-04-07T09:04:01.142Z,4804
2017-04-07T09:05:00.814Z,4860
2017-04-07T09:06:01.417Z,4940
2017-04-07T09:07:01.477Z,5064
2017-04-07T09:08:01.164Z,5284
2017-04-07T09:09:00.721Z,5508
2017-04-07T09:10:01.434Z,5316
2017-04-07T09:11:01.002Z,5168
2017-04-07T09:12:01.021Z,5196
2017-04-07T09:13:00.962Z,4880
2017-04-07T09:14:00.374Z,4824
2017-04-07T09:15:00.918Z,4484
2017-04-07T09:16:01.261Z,4568
2017-04-07T09:17:00.571Z,4720
2017-04-07T09:18:00.584Z,4636
2017-04-07T09:19:00.846Z,4680
2017-04-07T09:20:00.872Z,4660
2017-04-07T09:21:00.506Z,4660
2017-04-07T09:22:01.117Z,4564
2017-04-07T09:23:00.822Z,4520
2017-04-07T09:24:01.056Z,4636
2017-04-07T09:25:00.744Z,4764
2017-04-07T09:26:00.512Z,4896
2017-04-07T09:27:01.058Z,5084
2017-04-07T09:28:00.369Z,5180
2017-04-07T09:29:01.034Z,5432
2017-04-07T09:30:00.682Z,5516
2017-04-07T09:31:00.715Z,5588
2017-04-07T09:32:00.713Z,5400
2017-04-07T09:33:00.423Z,5184
2017-04-07T09:34:00.633Z,5192
2017-04-07T09:35:00.299Z,5308
2017-04-07T09:36:00.945Z,5472
2017-04-07T09:37:00.925Z,5504
2017-04-07T09:38:00.502Z,5572
2017-04-07T09:39:00.799Z,5640
2017-04-07T09:40:00.465Z,5532
2017-04-07T09:41:00.445Z,5880
2017-04-07T09:42:00.426Z,6112
2017-04-07T09:43:00.772Z,5660
2017-04-07T09:44:00.454Z,5416
2017-04-07T09:45:00.679Z,5660
2017-04-07T09:46:00.405Z,5208
2017-04-07T09:47:00.345Z,5372
2017-04-07T09:48:00.032Z,5672
2017-04-07T09:49:00.344Z,6100
2017-04-07T09:50:00.647Z,6452
2017-04-07T09:51:00.278Z,6564
2017-04-07T09:52:00.554Z,6832
2017-04-07T09:53:00.294Z,7096
2017-04-07T09:54:00.336Z,7404
2017-04-07T09:55:00.207Z,9556
2017-04-07T09:56:00.472Z,11944
2017-04-07T09:57:00.165Z,21664
2017-04-07T09:58:00.563Z,26016
2017-04-07T09:59:00.427Z,42848
2017-04-07T10:00:00.415Z,64576
2017-04-07T10:00:59.776Z,61408
2017-04-07T10:02:00.383Z,58144
2017-04-07T10:03:00.425Z,60960
2017-04-07T10:03:59.743Z,58720
2017-04-07T10:05:00.470Z,55328
2017-04-07T10:06:00.311Z,53088
2017-04-07T10:07:00.314Z,56128
2017-04-07T10:08:00.383Z,57184
2017-04-07T10:09:00.287Z,52544
2017-04-07T10:09:59.721Z,51360
2017-04-07T10:10:59.624Z,50464
2017-04-07T10:12:00.233Z,47808
2017-04-07T10:12:59.904Z,50944
2017-04-07T10:14:00.256Z,50560
2017-04-07T10:15:00.241Z,48544
2017-04-07T10:16:00.175Z,47776
2017-04-07T10:16:59.556Z,49440
2017-04-07T10:18:00.165Z,46048
2017-04-07T10:18:59.829Z,43872
2017-04-07T10:20:00.125Z,41536
2017-04-07T10:20:59.803Z,43936
2017-04-07T10:21:59.529Z,42496
2017-04-07T10:23:00.104Z,40480
2017-04-07T10:24:00.087Z,41760
2017-04-07T10:24:59.754Z,14804
2017-04-07T10:26:00.046Z,48416
2017-04-07T10:27:00.047Z,45280
2017-04-07T10:27:59.843Z,35776
2017-04-07T10:28:59.693Z,34464
2017-04-07T10:29:59.086Z,34368
2017-04-07T10:30:59.682Z,20736
2017-04-07T10:31:59.974Z,13012
2017-04-07T10:32:59.963Z,13492
2017-04-07T10:33:59.636Z,10700
2017-04-07T10:34:59.633Z,10032
2017-04-07T10:35:59.623Z,9868
2017-04-07T10:36:59.910Z,9564
2017-04-07T10:37:59.605Z,9468
2017-04-07T10:38:59.895Z,9952
2017-04-07T10:39:59.875Z,9396
2017-04-07T10:40:59.863Z,7932
2017-04-07T10:41:59.863Z,11748
2017-04-07T10:42:59.824Z,11828
2017-04-07T10:43:59.824Z,8916
2017-04-07T10:44:59.798Z,10556
2017-04-07T10:45:59.184Z,13108
2017-04-07T10:46:59.566Z,12884
2017-04-07T10:47:59.786Z,12688
2017-04-07T10:48:59.745Z,10992
2017-04-07T10:49:59.143Z,15520
2017-04-07T10:50:59.734Z,8888
2017-04-07T10:51:59.405Z,8244
2017-04-07T10:52:59.509Z,8656
2017-04-07T10:53:59.697Z,8528
2017-04-07T10:54:58.765Z,7540
2017-04-07T10:55:58.729Z,11288
2017-04-07T10:56:59.645Z,7748
2017-04-07T10:57:59.325Z,5888
2017-04-07T10:58:58.985Z,5436
2017-04-07T10:59:59.323Z,6156
2017-04-07T11:00:59.885Z,9800
2017-04-07T11:01:59.574Z,11220
2017-04-07T11:02:59.274Z,11008
2017-04-07T11:03:59.234Z,9488
2017-04-07T11:04:59.645Z,9836
2017-04-07T11:05:58.905Z,13048
2017-04-07T11:06:59.515Z,10856
2017-04-07T11:07:59.514Z,9884
2017-04-07T11:08:59.169Z,10572
2017-04-07T11:09:59.487Z,11628
2017-04-07T11:10:59.464Z,10628
2017-04-07T11:11:59.146Z,10340
2017-04-07T11:12:59.507Z,14400
2017-04-07T11:13:58.804Z,14424
2017-04-07T11:14:59.505Z,13916
2017-04-07T11:15:59.384Z,9876
2017-04-07T11:16:59.155Z,12892
2017-04-07T11:17:59.347Z,12336
2017-04-07T11:18:59.054Z,12088
2017-04-07T11:19:58.404Z,12072
2017-04-07T11:20:58.726Z,12016
2017-04-07T11:21:59.294Z,12044
2017-04-07T11:22:59.284Z,12060
2017-04-07T11:23:58.964Z,12828
2017-04-07T11:24:59.264Z,12724
2017-04-07T11:25:58.710Z,12648
2017-04-07T11:26:58.627Z,11188
2017-04-07T11:27:58.606Z,10612
2017-04-07T11:28:59.213Z,13192
2017-04-07T11:29:59.244Z,11364
2017-04-07T11:30:59.223Z,13412
2017-04-07T11:31:59.174Z,10236
2017-04-07T11:32:59.165Z,11064
2017-04-07T11:33:59.166Z,10352
2017-04-07T11:34:58.813Z,9808
2017-04-07T11:35:58.556Z,9240
2017-04-07T11:36:59.103Z,9948
2017-04-07T11:37:59.156Z,11784
2017-04-07T11:38:59.083Z,9684
2017-04-07T11:39:58.811Z,9920
2017-04-07T11:40:58.793Z,10176
2017-04-07T11:41:59.022Z,10548
2017-04-07T11:42:59.014Z,13816
2017-04-07T11:43:59.028Z,9576
2017-04-07T11:44:59.014Z,9744
2017-04-07T11:45:59.014Z,10732
2017-04-07T11:46:58.651Z,10368
2017-04-07T11:47:58.650Z,9440
2017-04-07T11:48:58.944Z,8868
2017-04-07T11:49:58.942Z,8168
2017-04-07T11:50:58.636Z,8248
2017-04-07T11:51:58.297Z,8352
2017-04-07T11:52:58.283Z,8364
2017-04-07T11:53:58.352Z,8136
2017-04-07T11:54:58.543Z,7984
2017-04-07T11:55:58.852Z,7532
2017-04-07T11:56:58.823Z,6804
2017-04-07T11:57:58.190Z,6132
2017-04-07T11:58:58.178Z,5668
2017-04-07T11:59:58.581Z,5384
2017-04-07T12:00:58.466Z,5008
2017-04-07T12:01:58.782Z,4760
2017-04-07T12:02:58.764Z,4368
2017-04-07T12:03:58.204Z,4236
2017-04-07T12:04:58.714Z,4084
2017-04-07T12:05:58.692Z,4052
2017-04-07T12:06:58.394Z,4008
2017-04-07T12:07:58.405Z,4032
2017-04-07T12:08:58.661Z,3996
2017-04-07T12:09:57.732Z,4128
2017-04-07T12:10:58.018Z,4400
2017-04-07T12:11:58.011Z,4796
2017-04-07T12:12:58.296Z,4856
2017-04-07T12:13:57.967Z,4816
2017-04-07T12:14:58.283Z,4616
2017-04-07T12:15:58.544Z,4776
2017-04-07T12:16:58.292Z,5680
2017-04-07T12:17:57.912Z,6180
2017-04-07T12:18:58.222Z,6196
2017-04-07T12:19:58.201Z,6084
2017-04-07T12:20:58.482Z,5792
2017-04-07T12:21:58.459Z,6076
2017-04-07T12:22:58.451Z,6156
2017-04-07T12:23:58.121Z,6596
2017-04-07T12:24:58.643Z,7448
2017-04-07T12:25:58.151Z,8276
2017-04-07T12:26:58.392Z,13528
2017-04-07T12:27:57.758Z,11284
2017-04-07T12:28:58.059Z,11612
2017-04-07T12:29:58.162Z,9780
2017-04-07T12:30:58.349Z,9080
2017-04-07T12:31:58.005Z,8840
2017-04-07T12:32:58.037Z,9028
2017-04-07T12:33:57.989Z,8672
2017-04-07T12:34:58.263Z,8000
2017-04-07T12:35:57.957Z,7756
2017-04-07T12:36:57.647Z,7408
2017-04-07T12:37:58.013Z,7240
2017-04-07T12:38:57.594Z,7184
2017-04-07T12:39:57.897Z,7348
2017-04-07T12:40:57.878Z,7924
2017-04-07T12:41:58.231Z,8624
2017-04-07T12:42:57.841Z,8644
2017-04-07T12:43:58.145Z,8448
2017-04-07T12:44:57.819Z,7688
2017-04-07T12:45:57.852Z,7196
2017-04-07T12:46:58.102Z,7016
2017-04-07T12:47:57.771Z,6612
2017-04-07T12:48:58.079Z,6240
2017-04-07T12:49:57.756Z,5924
2017-04-07T12:50:58.102Z,5580
2017-04-07T12:51:57.746Z,5508
2017-04-07T12:52:58.081Z,5332
2017-04-07T12:53:58.034Z,5132
2017-04-07T12:54:57.988Z,5012
2017-04-07T12:55:57.952Z,4804
2017-04-07T12:56:58.041Z,4684
2017-04-07T12:57:57.629Z,4424
2017-04-07T12:58:57.312Z,4044
2017-04-07T12:59:57.298Z,3820
2017-04-07T13:00:57.981Z,3600
2017-04-07T13:01:57.596Z,3408
2017-04-07T13:02:57.548Z,3352
2017-04-07T13:03:57.845Z,3392
2017-04-07T13:04:57.527Z,3316
2017-04-07T13:05:57.823Z,3276
2017-04-07T13:06:57.784Z,3224
2017-04-07T13:07:57.174Z,3176
2017-04-07T13:08:57.442Z,3076
2017-04-07T13:09:57.442Z,3032
2017-04-07T13:10:57.441Z,2928
2017-04-07T13:11:57.463Z,2876
2017-04-07T13:12:57.705Z,2856
2017-04-07T13:13:57.368Z,2864
2017-04-07T13:14:57.351Z,2852
2017-04-07T13:15:57.381Z,2844
2017-04-07T13:16:57.338Z,2780
2017-04-07T13:17:57.000Z,2772
2017-04-07T13:18:57.300Z,2760
2017-04-07T13:19:56.989Z,2664
2017-04-07T13:20:56.955Z,2628
2017-04-07T13:21:57.550Z,2540
2017-04-07T13:22:57.541Z,2548
2017-04-07T13:23:57.234Z,2612
2017-04-07T13:24:57.191Z,2652
2017-04-07T13:25:56.881Z,2784
2017-04-07T13:26:57.518Z,2904
2017-04-07T13:27:57.470Z,3068
2017-04-07T13:28:57.470Z,3208
2017-04-07T13:29:57.432Z,3348
2017-04-07T13:30:57.120Z,3516
2017-04-07T13:31:57.399Z,3756
2017-04-07T13:32:57.381Z,3932
2017-04-07T13:33:57.072Z,4016
2017-04-07T13:34:56.750Z,4020
2017-04-07T13:35:57.342Z,3976
2017-04-07T13:36:57.033Z,3684
2017-04-07T13:37:57.317Z,3640
2017-04-07T13:38:57.304Z,3496
2017-04-07T13:39:56.659Z,3232
2017-04-07T13:40:57.253Z,3144
2017-04-07T13:41:56.611Z,3032
2017-04-07T13:42:57.221Z,3012
2017-04-07T13:43:56.897Z,3028
2017-04-07T13:44:57.196Z,2920
2017-04-07T13:45:56.571Z,2728
2017-04-07T13:46:56.860Z,2736
2017-04-07T13:47:56.841Z,2596